Terminal Aerodrome Forecast
Issued by NWS

Current Version | Previous Version | Text Only | Print | Product List | Glossary On
Versions: 1 2 3 4 5 6 7 8 9 10 11 12 13
000
FTUS44 KJAN 272359
TAFGTR
TAF
KGTR 272359Z 2800/2824 15008KT P6SM SCT003 BKN006 BKN015
     FM280600 16011KT 5SM BR OVC003
     FM281600 18014G23KT P6SM BKN012 OVC025=

USA.gov is the U.S. government's official web portal to all federal, state and local government web resources and services.